Aérodrome :
LOGIN :

S'inscrire | Disclaimer

   EN    FR    IT 

 










Légende :    VFR   VFR Marginal   IFR   IFR Intensif   IFR Très Intensif
Visi : 
Plafond : 
>= 8 km
>= 3000ft
5 à 8 km
1000 à 3000 ft
1500m à 5 km
500 à 1000 ft
800 à 1500m
200 à 500 ft
< 800m
< 200 ft
Symboles :   Orages  Brouillard  Fortes neiges  Fortes précipitations  Vent > 20 kt
SIGMETs :   Divers  Orages  Givrage  Turbulence  Onde Orograph.  Cendres Volcan.






- Altitude de l'aérodrome : 7 ft
- Code IATA : POW


LJPZ - Portoroz

DERNIER METAR :
  • 150400Z 13006KT 6000 FEW036 BKN046 14/13 Q1017

METARs EXPIRÉS :
  • 150330Z AUTO 12006KT 5000 BKN044/// OVC050/// 13/12 Q1017
  • 150300Z AUTO 13006KT 4000 BR BKN046/// 13/12 Q1017
  • 150230Z AUTO 12007KT 3900 BR FEW038/// BKN046/// 13/12 Q1017
  • 150200Z AUTO 12005KT 3500 BR BKN039/// 13/12 Q1018

TAF TAF LJPZ
Valide du 15 à 03h jusqu'au 15 à 12h UTC


150200Z 1503/1512 12005KT 3500 BR BKN045
PROB30
TEMPO 1503/1512 FEW010 BKN025
BECMG 1507/1510 18005KT 9999 NSW
BECMG 1509/1512 18010KT



MET'MAP, la Météo Aéronautique d'un coup d'oeil ! - Copyright ORBIFLY Décembre 2007 - Disclaimer

ORBIFLY MET'MAP TEAM :

Programmation & Développement : Alexandra Zaïnal
Conception & Développement : Baudouin d'Aumeries
Co-Programmation & Développement : Marc-Olivier Méhu
Soutien technique & logistique : Manuel Goepfert

Contact : metmap@orbifly.com




SOURCES & CREDITS :

   NOAA